createdAt,value
2019-03-01T00:01:16.580Z,23.47
2019-03-01T00:03:43.988Z,23.07
2019-03-01T00:06:27.321Z,25.30
2019-03-01T00:09:40.535Z,26.47
2019-03-01T00:12:38.692Z,23.50
2019-03-01T00:15:33.480Z,21.67
2019-03-01T00:18:14.436Z,19.13
2019-03-01T00:21:22.781Z,20.17
2019-03-01T00:24:03.360Z,18.03
2019-03-01T00:26:44.333Z,19.37
2019-03-01T00:29:40.217Z,22.40
2019-03-01T00:32:30.010Z,21.07
2019-03-01T00:35:35.205Z,17.50
2019-03-01T00:38:39.607Z,19.70
2019-03-01T00:41:31.522Z,18.40
2019-03-01T00:44:39.276Z,21.43
2019-03-01T00:47:05.795Z,18.67
2019-03-01T00:49:32.522Z,17.03
2019-03-01T00:51:58.992Z,21.70
2019-03-01T00:54:25.473Z,15.43
2019-03-01T00:56:51.830Z,13.73
2019-03-01T00:59:18.487Z,15.33
2019-03-01T01:01:44.976Z,14.30
2019-03-01T01:04:11.712Z,14.03
2019-03-01T01:06:38.226Z,14.37
2019-03-01T01:09:06.055Z,16.90
2019-03-01T01:11:32.437Z,17.53
2019-03-01T01:13:58.832Z,16.90
2019-03-01T01:16:25.458Z,14.93
2019-03-01T01:18:51.886Z,18.43
2019-03-01T01:21:18.293Z,18.53
2019-03-01T01:23:44.912Z,20.77
2019-03-01T01:26:11.400Z,18.63
2019-03-01T01:28:37.681Z,19.63
2019-03-01T01:31:04.321Z,18.00
2019-03-01T01:33:30.807Z,19.03
2019-03-01T01:35:57.355Z,17.80
2019-03-01T01:38:23.877Z,17.40
2019-03-01T01:40:50.391Z,13.73
2019-03-01T01:43:16.896Z,15.60
2019-03-01T01:45:43.312Z,20.93
2019-03-01T01:48:09.813Z,14.90
2019-03-01T01:50:36.145Z,18.13
2019-03-01T01:53:02.711Z,17.83
2019-03-01T01:55:29.248Z,19.40
2019-03-01T01:57:55.835Z,20.87
2019-03-01T02:00:22.285Z,21.37
2019-03-01T02:02:48.776Z,26.87
2019-03-01T02:05:15.252Z,25.87
2019-03-01T02:07:41.892Z,25.67
2019-03-01T02:10:09.311Z,24.43
2019-03-01T02:12:36.155Z,26.63
2019-03-01T02:15:07.010Z,22.50
2019-03-01T02:17:33.340Z,20.73
2019-03-01T02:19:59.865Z,20.70
2019-03-01T02:22:26.491Z,24.30
2019-03-01T02:24:52.783Z,19.93
2019-03-01T02:27:25.101Z,24.27
2019-03-01T02:29:51.909Z,24.80
2019-03-01T02:32:29.893Z,22.67
2019-03-01T02:34:56.385Z,19.60
2019-03-01T02:37:23.002Z,24.90
2019-03-01T02:39:49.581Z,20.67
2019-03-01T02:42:15.972Z,20.87
2019-03-01T02:44:42.330Z,19.40
2019-03-01T02:47:08.737Z,23.93
2019-03-01T02:49:35.137Z,23.80
2019-03-01T02:52:01.550Z,25.43
2019-03-01T02:54:27.854Z,21.70
2019-03-01T02:56:54.126Z,22.57
2019-03-01T02:59:20.550Z,22.40
2019-03-01T03:01:46.919Z,22.93
2019-03-01T03:04:13.444Z,21.50
2019-03-01T03:06:41.694Z,21.17
2019-03-01T03:09:08.507Z,22.70
2019-03-01T03:11:34.988Z,25.27
2019-03-01T03:14:01.412Z,21.63
2019-03-01T03:16:28.009Z,20.70
2019-03-01T03:18:54.340Z,23.87
2019-03-01T03:21:20.732Z,28.40
2019-03-01T03:23:47.147Z,25.13
2019-03-01T03:26:13.617Z,22.40
2019-03-01T03:28:40.232Z,21.83
2019-03-01T03:31:06.531Z,27.23
2019-03-01T03:33:32.997Z,21.97
2019-03-01T03:35:59.405Z,22.17
2019-03-01T03:38:25.792Z,21.93
2019-03-01T03:40:52.322Z,28.23
2019-03-01T03:43:18.807Z,25.90
2019-03-01T03:45:45.320Z,27.63
2019-03-01T03:48:11.690Z,25.87
2019-03-01T03:50:38.257Z,22.20
2019-03-01T03:53:04.827Z,24.10
2019-03-01T03:55:31.451Z,24.90
2019-03-01T03:57:58.042Z,25.67
2019-03-01T04:00:24.774Z,26.77
2019-03-01T04:02:51.550Z,33.23
2019-03-01T04:05:18.069Z,29.40
2019-03-01T04:07:45.177Z,27.83
2019-03-01T04:10:12.233Z,31.83
2019-03-01T04:12:38.845Z,28.83
2019-03-01T04:15:09.910Z,30.73
2019-03-01T04:17:36.454Z,28.27
2019-03-01T04:20:07.650Z,28.83
2019-03-01T04:22:34.097Z,31.83
2019-03-01T04:25:00.598Z,30.43
2019-03-01T04:27:27.027Z,27.43
2019-03-01T04:29:53.438Z,29.13
2019-03-01T04:32:19.824Z,32.23
2019-03-01T04:34:46.222Z,30.50
2019-03-01T04:37:12.690Z,30.50
2019-03-01T04:39:39.078Z,33.07
2019-03-01T04:42:05.621Z,32.60
2019-03-01T04:44:32.182Z,31.17
2019-03-01T04:46:58.701Z,31.40
2019-03-01T04:49:25.312Z,31.67
2019-03-01T04:51:51.732Z,30.17
2019-03-01T04:54:18.030Z,28.57
2019-03-01T04:56:44.772Z,30.53
2019-03-01T04:59:11.172Z,33.30
2019-03-01T05:01:37.624Z,29.77
2019-03-01T05:04:04.334Z,31.97
2019-03-01T05:06:30.932Z,35.50
2019-03-01T05:08:57.358Z,30.77
2019-03-01T05:11:23.806Z,35.40
2019-03-01T05:13:50.174Z,34.87
2019-03-01T05:16:16.521Z,36.40
2019-03-01T05:18:42.957Z,41.03
2019-03-01T05:21:09.342Z,44.10
2019-03-01T05:23:35.788Z,44.00
2019-03-01T05:26:02.089Z,45.03
2019-03-01T05:28:28.611Z,46.03
2019-03-01T05:30:55.009Z,44.70
2019-03-01T05:33:21.438Z,46.57
2019-03-01T05:35:47.731Z,46.70
2019-03-01T05:38:21.530Z,46.40
2019-03-01T05:40:42.482Z,51.07
2019-03-01T05:43:09.007Z,45.23
2019-03-01T05:45:35.516Z,41.70
2019-03-01T05:48:01.814Z,45.70
2019-03-01T05:50:28.216Z,41.13
2019-03-01T05:52:54.841Z,43.17
2019-03-01T05:55:21.372Z,45.43
2019-03-01T05:58:27.858Z,41.83
2019-03-01T06:01:08.742Z,43.60
2019-03-01T06:04:07.645Z,43.23
2019-03-01T06:06:51.623Z,40.17
2019-03-01T06:09:55.579Z,44.13
2019-03-01T06:12:45.672Z,44.47
2019-03-01T06:15:54.414Z,45.87
2019-03-01T06:18:41.351Z,44.43
2019-03-01T06:22:07.031Z,47.90
2019-03-01T06:25:06.431Z,47.60
2019-03-01T06:27:56.208Z,50.70
2019-03-01T06:31:06.383Z,46.50
2019-03-01T06:33:41.344Z,53.37
2019-03-01T06:36:37.601Z,56.60
2019-03-01T06:39:19.780Z,53.53
2019-03-01T06:42:05.732Z,49.10
2019-03-01T06:45:13.174Z,58.23
2019-03-01T06:47:46.778Z,54.27
2019-03-01T06:50:21.194Z,56.90
2019-03-01T06:52:47.844Z,55.57
2019-03-01T06:55:34.509Z,56.13
2019-03-01T06:58:05.078Z,58.83
2019-03-01T07:00:33.460Z,60.57
2019-03-01T07:03:00.782Z,62.23
2019-03-01T07:05:27.177Z,59.00
2019-03-01T07:07:53.730Z,68.87
2019-03-01T07:10:20.238Z,56.90
2019-03-01T07:12:46.551Z,59.60
2019-03-01T07:15:13.050Z,63.03
2019-03-01T07:17:39.466Z,58.40
2019-03-01T07:20:08.692Z,61.83
2019-03-01T07:22:35.519Z,59.07
2019-03-01T07:25:03.721Z,55.80
2019-03-01T07:27:30.141Z,58.20
2019-03-01T07:29:56.517Z,57.80
2019-03-01T07:32:22.910Z,58.77
2019-03-01T07:34:49.412Z,58.90
2019-03-01T07:37:15.932Z,58.33
2019-03-01T07:39:42.344Z,56.23
2019-03-01T07:42:08.623Z,56.73
2019-03-01T07:44:35.059Z,55.57
2019-03-01T07:47:01.598Z,58.97
2019-03-01T07:49:27.952Z,60.67
2019-03-01T07:51:54.484Z,60.20
2019-03-01T07:54:22.416Z,61.57
2019-03-01T07:56:49.249Z,66.97
2019-03-01T07:59:15.552Z,66.67
2019-03-01T08:01:41.886Z,68.63
2019-03-01T08:04:08.405Z,69.27
2019-03-01T08:06:35.094Z,72.90
2019-03-01T08:09:01.550Z,73.97
2019-03-01T08:11:28.486Z,72.03
2019-03-01T08:13:56.587Z,81.17
2019-03-01T08:16:25.160Z,76.93
2019-03-01T08:18:51.224Z,76.80
2019-03-01T08:21:17.757Z,80.70
2019-03-01T08:23:44.246Z,78.10
2019-03-01T08:26:10.721Z,83.93
2019-03-01T08:28:37.138Z,84.57
2019-03-01T08:31:04.623Z,89.90
2019-03-01T08:33:31.439Z,91.33
2019-03-01T08:35:58.018Z,93.57
2019-03-01T08:38:25.496Z,92.13
2019-03-01T08:40:54.529Z,96.10
2019-03-01T08:43:21.116Z,94.33
2019-03-01T08:45:47.715Z,106.03
2019-03-01T08:48:14.412Z,104.33
2019-03-01T08:50:40.934Z,118.20
2019-03-01T08:53:07.412Z,127.97
2019-03-01T08:55:35.628Z,129.27
2019-03-01T08:58:06.068Z,121.33
2019-03-01T09:00:41.564Z,120.93
2019-03-01T09:03:17.233Z,133.93
2019-03-01T09:05:42.177Z,126.50
2019-03-01T09:08:08.682Z,124.03
2019-03-01T09:10:35.292Z,117.30
2019-03-01T09:13:01.727Z,131.03
2019-03-01T09:15:28.238Z,127.90
2019-03-01T09:17:54.917Z,133.17
2019-03-01T09:20:21.358Z,146.03
2019-03-01T09:22:47.863Z,159.83
2019-03-01T09:25:14.372Z,159.40
2019-03-01T09:27:41.074Z,171.17
2019-03-01T09:30:18.353Z,181.23
2019-03-01T09:32:44.912Z,200.07
2019-03-01T09:35:25.787Z,185.90
2019-03-01T09:37:52.372Z,198.37
2019-03-01T09:40:18.913Z,187.33
2019-03-01T09:42:47.500Z,159.30
2019-03-01T09:45:14.317Z,151.67
2019-03-01T09:47:41.061Z,152.47
2019-03-01T09:50:10.528Z,136.53
2019-03-01T09:52:37.031Z,138.10
2019-03-01T09:55:07.428Z,126.23
2019-03-01T09:57:33.996Z,136.10
2019-03-01T10:00:00.597Z,128.97
2019-03-01T10:02:26.974Z,135.47
2019-03-01T10:04:53.612Z,131.63
2019-03-01T10:07:20.226Z,147.77
2019-03-01T10:09:46.793Z,147.57
2019-03-01T10:12:13.196Z,156.07
2019-03-01T10:14:39.724Z,151.43
2019-03-01T10:17:06.323Z,144.83
2019-03-01T10:19:32.986Z,150.70
2019-03-01T10:21:59.418Z,145.93
2019-03-01T10:24:25.997Z,156.30
2019-03-01T10:26:52.598Z,148.23
2019-03-01T10:29:19.084Z,163.53
2019-03-01T10:31:45.654Z,166.77
2019-03-01T10:34:12.043Z,161.93
2019-03-01T10:36:38.502Z,163.77
2019-03-01T10:39:10.544Z,175.03
2019-03-01T10:41:37.072Z,170.27
2019-03-01T10:44:03.568Z,172.30
2019-03-01T10:46:29.883Z,175.27
2019-03-01T10:48:57.291Z,190.03
2019-03-01T10:51:23.753Z,190.70
2019-03-01T10:53:50.149Z,177.93
2019-03-01T10:56:16.714Z,173.30
2019-03-01T10:58:43.248Z,156.63
2019-03-01T11:01:09.957Z,152.17
2019-03-01T11:03:36.491Z,152.07
2019-03-01T11:06:03.138Z,155.40
2019-03-01T11:08:29.552Z,144.37
2019-03-01T11:10:56.019Z,146.67
2019-03-01T11:13:22.622Z,132.60
2019-03-01T11:15:49.232Z,131.80
2019-03-01T11:18:15.889Z,131.80
2019-03-01T11:20:42.336Z,126.53
2019-03-01T11:23:08.883Z,126.27
2019-03-01T11:25:35.482Z,111.23
2019-03-01T11:28:02.177Z,111.33
2019-03-01T11:30:34.826Z,95.90
2019-03-01T11:33:01.490Z,104.73
2019-03-01T11:35:28.197Z,105.03
2019-03-01T11:37:54.873Z,104.80
2019-03-01T11:40:38.237Z,96.77
2019-03-01T11:43:05.468Z,97.47
2019-03-01T11:45:32.104Z,104.37
2019-03-01T11:47:58.798Z,114.83
2019-03-01T11:50:25.530Z,109.60
2019-03-01T11:52:52.662Z,112.17
2019-03-01T11:55:19.905Z,103.93
2019-03-01T11:57:46.698Z,105.50
2019-03-01T12:00:16.642Z,99.90
2019-03-01T12:02:43.488Z,100.23
2019-03-01T12:05:11.291Z,103.20
2019-03-01T12:07:37.977Z,101.13
2019-03-01T12:10:12.640Z,100.97
2019-03-01T12:12:39.259Z,96.53
2019-03-01T12:15:08.855Z,101.93
2019-03-01T12:17:35.466Z,109.30
2019-03-01T12:20:02.559Z,90.87
2019-03-01T12:22:29.197Z,101.90
2019-03-01T12:24:55.652Z,102.13
2019-03-01T12:27:22.262Z,96.30
2019-03-01T12:29:48.989Z,94.37
2019-03-01T12:32:15.618Z,75.73
2019-03-01T12:34:42.178Z,61.17
2019-03-01T12:37:08.785Z,48.50
2019-03-01T12:39:35.447Z,50.57
2019-03-01T12:42:02.124Z,48.10
2019-03-01T12:44:28.751Z,44.47
2019-03-01T12:46:55.395Z,43.00
2019-03-01T12:49:22.005Z,40.17
2019-03-01T12:51:48.733Z,37.53
2019-03-01T12:54:15.237Z,34.20
2019-03-01T12:56:41.898Z,35.57
2019-03-01T12:59:08.568Z,30.77
2019-03-01T13:01:35.226Z,29.00
2019-03-01T13:04:01.781Z,30.77
2019-03-01T13:06:28.218Z,38.57
2019-03-01T13:08:54.607Z,33.23
2019-03-01T13:11:21.247Z,39.03
2019-03-01T13:13:47.820Z,38.90
2019-03-01T13:16:14.390Z,37.47
2019-03-01T13:18:40.924Z,39.47
2019-03-01T13:21:09.616Z,42.80
2019-03-01T13:23:37.536Z,42.50
2019-03-01T13:26:06.172Z,41.23
2019-03-01T13:28:33.148Z,48.67
2019-03-01T13:30:59.711Z,47.67
2019-03-01T13:33:26.294Z,44.40
2019-03-01T13:35:52.823Z,45.97
2019-03-01T13:38:19.643Z,42.43
2019-03-01T13:40:46.309Z,42.67
2019-03-01T13:43:12.927Z,37.50
2019-03-01T13:45:39.610Z,37.00
2019-03-01T13:48:06.162Z,36.97
2019-03-01T13:50:32.597Z,34.30
2019-03-01T13:52:59.289Z,37.00
2019-03-01T13:55:27.613Z,40.60
2019-03-01T13:57:54.430Z,29.20
2019-03-01T14:00:21.533Z,41.63
2019-03-01T14:02:48.595Z,38.63
2019-03-01T14:05:17.357Z,34.17
2019-03-01T14:07:44.741Z,35.53
2019-03-01T14:10:21.381Z,34.03
2019-03-01T14:12:48.022Z,37.50
2019-03-01T14:15:16.394Z,33.60
2019-03-01T14:17:43.028Z,31.87
2019-03-01T14:20:21.010Z,35.93
2019-03-01T14:22:49.182Z,28.80
2019-03-01T14:25:15.921Z,32.40
2019-03-01T14:27:42.635Z,31.37
2019-03-01T14:30:25.309Z,29.80
2019-03-01T14:32:56.892Z,32.67
2019-03-01T14:35:25.772Z,33.27
2019-03-01T14:37:54.145Z,39.33
2019-03-01T14:40:19.156Z,36.40
2019-03-01T14:42:47.687Z,36.30
2019-03-01T14:45:20.544Z,37.30
2019-03-01T14:47:47.404Z,36.27
2019-03-01T14:50:18.102Z,39.53
2019-03-01T14:52:44.804Z,33.43
2019-03-01T14:55:22.752Z,34.33
2019-03-01T14:57:53.462Z,34.47
2019-03-01T15:00:28.880Z,30.60
2019-03-01T15:03:32.354Z,32.37
2019-03-01T15:05:59.007Z,33.37
2019-03-01T15:08:25.646Z,37.50
2019-03-01T15:10:52.384Z,34.57
2019-03-01T15:13:18.948Z,42.27
2019-03-01T15:15:45.645Z,37.53
2019-03-01T15:18:12.373Z,39.53
2019-03-01T15:20:39.142Z,41.63
2019-03-01T15:23:05.747Z,34.27
2019-03-01T15:25:32.177Z,41.13
2019-03-01T15:27:58.909Z,37.60
2019-03-01T15:30:25.652Z,35.57
2019-03-01T15:32:52.592Z,40.73
2019-03-01T15:35:19.300Z,38.33
2019-03-01T15:37:45.735Z,38.80
2019-03-01T15:40:12.848Z,33.40
2019-03-01T15:42:39.408Z,39.70
2019-03-01T15:45:10.646Z,40.50
2019-03-01T15:47:37.348Z,36.67
2019-03-01T15:50:09.900Z,39.57
2019-03-01T15:52:36.540Z,39.40
2019-03-01T15:55:11.688Z,41.23
2019-03-01T15:57:36.295Z,37.47
2019-03-01T16:00:10.511Z,35.80
2019-03-01T16:02:37.160Z,35.43
2019-03-01T16:05:08.295Z,35.60
2019-03-01T16:07:35.088Z,38.73
2019-03-01T16:10:02.228Z,35.70
2019-03-01T16:12:32.423Z,37.37
2019-03-01T16:15:00.497Z,36.97
2019-03-01T16:17:26.114Z,36.27
2019-03-01T16:19:53.575Z,28.57
2019-03-01T16:22:20.336Z,29.23
2019-03-01T16:24:46.983Z,28.20
2019-03-01T16:27:15.347Z,30.70
2019-03-01T16:29:43.238Z,29.47
2019-03-01T16:32:09.792Z,28.23
2019-03-01T16:34:37.647Z,27.63
2019-03-01T16:37:04.920Z,31.30
2019-03-01T16:39:31.505Z,27.63
2019-03-01T16:41:58.145Z,24.00
2019-03-01T16:44:24.756Z,26.57
2019-03-01T16:46:51.354Z,25.67
2019-03-01T16:49:18.083Z,25.73
2019-03-01T16:51:44.648Z,25.40
2019-03-01T16:54:15.282Z,25.73
2019-03-01T16:56:39.881Z,26.37
2019-03-01T16:59:07.277Z,28.17
2019-03-01T17:01:34.087Z,20.93
2019-03-01T17:04:00.808Z,20.03
2019-03-01T17:06:27.638Z,22.73
2019-03-01T17:08:54.426Z,19.07
2019-03-01T17:11:21.268Z,17.87
2019-03-01T17:13:47.874Z,20.53
2019-03-01T17:16:14.630Z,16.27
2019-03-01T17:18:41.268Z,16.77
2019-03-01T17:21:08.746Z,22.53
2019-03-01T17:23:35.909Z,17.50
2019-03-01T17:26:04.375Z,15.87
2019-03-01T17:28:30.888Z,15.33
2019-03-01T17:30:58.270Z,15.87
2019-03-01T17:33:25.203Z,17.50
2019-03-01T17:35:52.124Z,17.93
2019-03-01T17:38:20.785Z,13.37
2019-03-01T17:40:47.535Z,21.60
2019-03-01T17:43:14.168Z,16.07
2019-03-01T17:45:40.833Z,18.13
2019-03-01T17:48:07.585Z,14.57
2019-03-01T17:50:34.172Z,16.87
2019-03-01T17:53:00.702Z,12.70
2019-03-01T17:55:27.576Z,18.70
2019-03-01T17:57:54.134Z,14.27
2019-03-01T18:00:31.160Z,13.13
2019-03-01T18:02:57.936Z,15.33
2019-03-01T18:05:25.155Z,15.73
2019-03-01T18:07:51.880Z,13.27
2019-03-01T18:10:19.066Z,15.40
2019-03-01T18:12:45.923Z,13.47
2019-03-01T18:15:14.300Z,15.70
2019-03-01T18:17:40.942Z,9.67
2019-03-01T18:20:10.305Z,15.17
2019-03-01T18:22:37.085Z,14.57
2019-03-01T18:25:08.738Z,11.87
2019-03-01T18:27:35.718Z,12.00
2019-03-01T18:30:21.089Z,11.07
2019-03-01T18:32:47.862Z,12.30
2019-03-01T18:35:14.518Z,12.43
2019-03-01T18:37:41.182Z,13.97
2019-03-01T18:40:16.553Z,14.47
2019-03-01T18:42:41.370Z,14.47
2019-03-01T18:45:17.035Z,14.40
2019-03-01T18:47:43.895Z,13.10
2019-03-01T18:50:32.516Z,12.43
2019-03-01T18:53:00.863Z,10.73
2019-03-01T18:55:27.534Z,11.37
2019-03-01T18:57:54.120Z,12.60
2019-03-01T19:00:32.487Z,11.27
2019-03-01T19:03:04.142Z,14.97
2019-03-01T19:05:31.753Z,16.60
2019-03-01T19:08:00.856Z,15.97
2019-03-01T19:10:27.764Z,12.03
2019-03-01T19:12:55.641Z,12.87
2019-03-01T19:15:22.465Z,11.17
2019-03-01T19:17:54.732Z,9.60
2019-03-01T19:20:37.992Z,12.27
2019-03-01T19:23:03.497Z,15.03
2019-03-01T19:25:30.403Z,9.40
2019-03-01T19:28:06.053Z,12.77
2019-03-01T19:30:39.676Z,14.47
2019-03-01T19:33:12.369Z,9.80
2019-03-01T19:35:47.817Z,9.87
2019-03-01T19:38:25.156Z,8.97
2019-03-01T19:40:59.645Z,10.00
2019-03-01T19:43:35.756Z,9.53
2019-03-01T19:46:12.665Z,9.17
2019-03-01T19:48:50.890Z,12.20
2019-03-01T19:51:28.655Z,11.37
2019-03-01T19:54:08.417Z,10.83
2019-03-01T19:56:50.567Z,11.47
2019-03-01T19:59:27.036Z,8.37
2019-03-01T20:02:05.556Z,13.33
2019-03-01T20:04:34.821Z,10.40
2019-03-01T20:07:10.588Z,7.40
2019-03-01T20:09:50.479Z,12.83
2019-03-01T20:12:31.090Z,10.17
2019-03-01T20:14:58.888Z,11.73
2019-03-01T20:17:26.063Z,11.07
2019-03-01T20:19:53.563Z,12.43
2019-03-01T20:22:21.985Z,14.63
2019-03-01T20:24:49.199Z,15.30
2019-03-01T20:27:16.199Z,15.90
2019-03-01T20:29:43.469Z,15.13
2019-03-01T20:32:12.530Z,12.20
2019-03-01T20:34:40.030Z,14.73
2019-03-01T20:37:06.875Z,13.73
2019-03-01T20:39:33.943Z,16.80
2019-03-01T20:42:00.906Z,19.40
2019-03-01T20:44:27.749Z,18.80
2019-03-01T20:46:54.503Z,18.80
2019-03-01T20:49:21.364Z,16.13
2019-03-01T20:51:48.282Z,17.13
2019-03-01T20:54:14.946Z,16.63
2019-03-01T20:56:41.979Z,17.57
2019-03-01T20:59:09.028Z,17.83
2019-03-01T21:01:37.233Z,17.67
2019-03-01T21:04:05.736Z,21.90
2019-03-01T21:06:33.951Z,16.87
2019-03-01T21:09:04.116Z,23.40
2019-03-01T21:11:29.855Z,18.73
2019-03-01T21:13:56.818Z,19.50
2019-03-01T21:16:23.965Z,23.00
2019-03-01T21:18:50.954Z,18.30
2019-03-01T21:21:18.168Z,20.13
2019-03-01T21:23:47.641Z,22.30
2019-03-01T21:26:15.617Z,21.00
2019-03-01T21:28:42.777Z,19.00
2019-03-01T21:31:09.699Z,22.07
2019-03-01T21:33:36.688Z,21.83
2019-03-01T21:36:03.519Z,18.80
2019-03-01T21:38:30.424Z,21.73
2019-03-01T21:40:57.376Z,26.80
2019-03-01T21:43:24.337Z,19.13
2019-03-01T21:45:51.169Z,25.07
2019-03-01T21:48:18.651Z,20.17
2019-03-01T21:50:45.896Z,22.20
2019-03-01T21:53:12.731Z,21.80
2019-03-01T21:55:39.373Z,20.80
2019-03-01T21:58:06.619Z,20.40
2019-03-01T22:00:34.902Z,23.60
2019-03-01T22:03:02.024Z,26.33
2019-03-01T22:05:28.770Z,23.03
2019-03-01T22:07:55.371Z,29.17
2019-03-01T22:10:22.096Z,21.50
2019-03-01T22:12:48.955Z,21.73
2019-03-01T22:15:28.041Z,24.10
2019-03-01T22:17:55.073Z,29.67
2019-03-01T22:20:22.283Z,27.57
2019-03-01T22:22:48.745Z,32.50
2019-03-01T22:25:15.432Z,33.23
2019-03-01T22:27:42.974Z,37.63
2019-03-01T22:30:23.825Z,29.00
2019-03-01T22:32:50.732Z,31.03
2019-03-01T22:35:17.255Z,24.37
2019-03-01T22:37:43.965Z,26.00
2019-03-01T22:40:10.838Z,25.27
2019-03-01T22:42:37.463Z,22.93
2019-03-01T22:45:10.465Z,20.93
2019-03-01T22:47:38.643Z,14.60
2019-03-01T22:50:09.706Z,15.77
2019-03-01T22:52:36.414Z,13.60
2019-03-01T22:55:06.425Z,15.40
2019-03-01T22:57:33.970Z,13.77
2019-03-01T23:00:00.370Z,11.47
2019-03-01T23:02:27.146Z,14.30
2019-03-01T23:04:53.744Z,13.33
2019-03-01T23:07:23.481Z,11.40
2019-03-01T23:09:49.346Z,12.73
2019-03-01T23:12:16.032Z,11.07
2019-03-01T23:14:42.642Z,11.43
2019-03-01T23:17:09.089Z,13.17
2019-03-01T23:19:35.614Z,11.90
2019-03-01T23:22:02.203Z,12.27
2019-03-01T23:24:31.651Z,11.60
2019-03-01T23:26:57.757Z,13.50
2019-03-01T23:29:24.406Z,12.47
2019-03-01T23:31:51.071Z,10.93
2019-03-01T23:34:17.619Z,10.07
2019-03-01T23:36:44.516Z,10.60
2019-03-01T23:39:11.150Z,12.87
2019-03-01T23:41:37.740Z,10.50
2019-03-01T23:44:06.576Z,11.20
2019-03-01T23:46:32.701Z,13.73
2019-03-01T23:49:06.077Z,10.90
2019-03-01T23:51:27.356Z,12.33
2019-03-01T23:53:54.099Z,13.00
2019-03-01T23:56:20.659Z,12.07
2019-03-01T23:58:48.006Z,12.07
